createdAt,value
2023-05-09T00:09:56.922Z,8.605351170568563
2023-05-09T00:20:13.815Z,8.016722408026755
2023-05-09T00:26:36.048Z,8.729096989966555
2023-05-09T00:32:59.458Z,7.936454849498328
2023-05-09T00:39:23.480Z,8.150501672240802
2023-05-09T00:45:46.263Z,8.23076923076923
2023-05-09T00:52:10.548Z,9.060200668896321
2023-05-09T00:58:32.775Z,7.6521739130434785
2023-05-09T01:04:54.358Z,7.190635451505017
2023-05-09T01:11:17.588Z,7.832775919732441
2023-05-09T01:17:40.896Z,7.05685618729097
2023-05-09T01:24:03.738Z,7.461538461538462
2023-05-09T01:39:47.130Z,7.170568561872909
2023-05-09T01:46:11.991Z,7.404682274247492
2023-05-09T01:52:33.772Z,7.59866220735786
2023-05-09T01:58:57.301Z,7.7157190635451505
2023-05-09T02:05:22.466Z,7.137123745819398
2023-05-09T02:11:48.081Z,7.983277591973244
2023-05-09T02:18:13.862Z,8.100334448160535
2023-05-09T02:24:37.141Z,7.839464882943144
2023-05-09T02:31:52.037Z,7.725752508361204
2023-05-09T02:42:20.416Z,7.404682274247492
2023-05-09T02:48:47.696Z,7.842809364548495
2023-05-09T02:55:16.498Z,8.732441471571907
2023-05-09T03:01:37.182Z,8.404682274247492
2023-05-09T03:08:02.439Z,9.046822742474916
2023-05-09T03:14:23.732Z,8.88628762541806
2023-05-09T03:20:49.013Z,8.555183946488294
2023-05-09T03:27:12.833Z,7.494983277591973
2023-05-09T03:33:37.560Z,8.361204013377927
2023-05-09T03:40:00.068Z,8.953177257525084
2023-05-09T03:46:24.532Z,9.869565217391305
2023-05-09T03:52:49.152Z,9.006688963210703
2023-05-09T03:59:17.550Z,9.77257525083612
2023-05-09T04:07:50.469Z,9.190635451505017
2023-05-09T04:14:17.724Z,10.451505016722408
2023-05-09T04:20:42.097Z,10.224080267558529
2023-05-09T04:27:09.068Z,10.321070234113712
2023-05-09T04:33:34.344Z,11.37123745819398
2023-05-09T04:39:57.603Z,11.665551839464882
2023-05-09T04:46:20.344Z,10.22742474916388
2023-05-09T04:52:43.783Z,11.531772575250836
2023-05-09T04:59:07.069Z,10.936454849498327
2023-05-09T05:05:30.214Z,12.153846153846153
2023-05-09T05:13:42.063Z,12.792642140468228
2023-05-09T05:20:04.199Z,12.561872909698996
2023-05-09T05:26:26.706Z,12.979933110367893
2023-05-09T05:38:12.983Z,14.923076923076923
2023-05-09T05:44:34.782Z,13.250836120401338
2023-05-09T05:50:57.077Z,14.301003344481606
2023-05-09T06:01:20.904Z,14.421404682274247
2023-05-09T06:07:42.626Z,14.036789297658864
2023-05-09T06:14:04.420Z,14.324414715719064
2023-05-09T06:20:28.354Z,14.060200668896321
2023-05-09T06:35:37.538Z,14.431438127090301
2023-05-09T06:45:11.852Z,15.147157190635452
2023-05-09T06:51:35.195Z,15.959866220735785
2023-05-09T06:57:57.853Z,14.74581939799331
2023-05-09T07:09:20.373Z,15.010033444816054
2023-05-09T07:20:50.373Z,15.548494983277592
2023-05-09T07:27:14.147Z,16.7190635451505
2023-05-09T07:40:01.003Z,15.993311036789297
2023-05-09T07:46:24.941Z,17.32441471571906
2023-05-09T07:52:49.800Z,17.277591973244146
2023-05-09T08:02:22.044Z,16.795986622073578
2023-05-09T08:08:45.604Z,17.812709030100333
2023-05-09T08:15:10.189Z,17.79933110367893
2023-05-09T08:21:33.761Z,20.0
2023-05-09T08:32:07.060Z,19.615384615384617
2023-05-09T08:38:32.159Z,20.68561872909699
2023-05-09T08:50:30.032Z,20.561872909698998
2023-05-09T08:56:54.599Z,22.107023411371237
2023-05-09T09:07:18.833Z,21.561872909698998
2023-05-09T09:13:41.762Z,20.80267558528428
2023-05-09T09:21:22.036Z,20.806020066889634
2023-05-09T09:27:52.891Z,21.67558528428094
2023-05-09T09:34:40.477Z,21.79933110367893
2023-05-09T09:45:22.648Z,22.351170568561873
2023-05-09T09:51:46.042Z,21.464882943143813
2023-05-09T09:58:09.498Z,21.48160535117057
2023-05-09T10:04:32.848Z,21.317725752508363
2023-05-09T10:19:33.129Z,21.11371237458194
2023-05-09T10:25:56.120Z,21.976588628762542
2023-05-09T10:32:56.253Z,21.043478260869566
2023-05-09T10:39:20.649Z,20.759197324414714
2023-05-09T10:50:59.880Z,20.32441471571906
2023-05-09T10:57:24.207Z,20.224080267558527
2023-05-09T11:03:48.197Z,18.782608695652176
2023-05-09T11:16:00.556Z,20.220735785953178
2023-05-09T11:22:24.550Z,20.441471571906355
2023-05-09T11:28:47.597Z,19.638795986622075
2023-05-09T11:35:10.932Z,20.123745819397993
2023-05-09T11:45:40.275Z,19.82274247491639
2023-05-09T11:52:03.865Z,18.578595317725753
2023-05-09T12:02:17.499Z,17.7190635451505
2023-05-09T12:08:40.694Z,18.414715719063544
2023-05-09T12:16:12.678Z,17.926421404682273
2023-05-09T12:22:35.314Z,17.993311036789297
2023-05-09T12:34:43.775Z,17.59197324414716
2023-05-09T12:41:21.899Z,17.254180602006688
2023-05-09T12:47:56.507Z,17.367892976588628
2023-05-09T12:54:21.956Z,16.909698996655518
2023-05-09T13:02:31.664Z,16.732441471571907
2023-05-09T13:08:54.587Z,16.107023411371237
2023-05-09T13:15:18.994Z,18.37123745819398
2023-05-09T13:21:42.907Z,17.97993311036789
2023-05-09T13:28:08.041Z,17.157190635451506
2023-05-09T13:37:33.828Z,17.28428093645485
2023-05-09T13:43:56.874Z,15.882943143812708
2023-05-09T13:56:08.064Z,15.839464882943144
2023-05-09T14:02:30.187Z,15.993311036789297
2023-05-09T14:08:52.688Z,15.665551839464882
2023-05-09T14:15:15.351Z,15.247491638795987
2023-05-09T14:21:37.965Z,17.274247491638796
2023-05-09T14:28:00.834Z,14.535117056856187
2023-05-09T14:34:24.702Z,15.799331103678929
2023-05-09T14:40:53.337Z,15.755852842809364
2023-05-09T14:47:17.089Z,15.137123745819398
2023-05-09T14:58:59.264Z,14.665551839464882
2023-05-09T15:05:22.682Z,15.879598662207357
2023-05-09T15:11:48.127Z,15.48494983277592
2023-05-09T15:18:11.961Z,16.712374581939798
2023-05-09T15:24:34.030Z,15.946488294314381
2023-05-09T15:33:17.620Z,15.936454849498327
2023-05-09T15:39:40.156Z,15.658862876254181
2023-05-09T15:46:04.883Z,15.698996655518394
2023-05-09T15:56:31.648Z,15.494983277591974
2023-05-09T16:14:42.548Z,16.066889632107024
2023-05-09T16:23:24.141Z,16.234113712374583
2023-05-09T16:31:26.418Z,15.698996655518394
2023-05-09T16:37:50.702Z,16.190635451505017
2023-05-09T16:51:32.220Z,16.110367892976587
2023-05-09T16:57:56.081Z,16.438127090301002
2023-05-09T17:13:56.289Z,16.337792642140467
2023-05-09T17:20:21.365Z,16.187290969899667
2023-05-09T17:26:45.221Z,16.00334448160535
2023-05-09T17:36:20.138Z,15.732441471571907
2023-05-09T17:42:44.690Z,15.722408026755852
2023-05-09T17:49:08.674Z,15.347826086956522
2023-05-09T17:58:34.569Z,15.959866220735785
2023-05-09T18:04:59.223Z,15.501672240802675
2023-05-09T18:11:23.188Z,15.478260869565217
2023-05-09T18:17:48.222Z,14.688963210702342
2023-05-09T18:24:52.504Z,15.615384615384615
2023-05-09T18:31:20.189Z,16.50836120401338
2023-05-09T18:39:50.502Z,14.956521739130435
2023-05-09T18:46:16.175Z,13.76923076923077
2023-05-09T18:52:44.481Z,14.137123745819398
2023-05-09T19:01:23.068Z,16.244147157190636
2023-05-09T19:07:47.854Z,18.598662207357858
2023-05-09T19:14:09.131Z,18.839464882943144
2023-05-09T19:20:29.123Z,21.528428093645484
2023-05-09T19:30:12.579Z,20.57190635451505
2023-05-09T19:36:33.105Z,20.347826086956523
2023-05-09T19:42:53.324Z,18.725752508361204
2023-05-09T19:49:18.462Z,18.645484949832777
2023-05-09T19:55:41.623Z,17.471571906354516
2023-05-09T20:02:03.590Z,15.377926421404682
2023-05-09T20:08:27.363Z,16.62541806020067
2023-05-09T20:14:49.381Z,14.906354515050166
2023-05-09T20:21:12.528Z,17.421404682274247
2023-05-09T20:27:36.226Z,15.812709030100335
2023-05-09T20:33:57.576Z,15.665551839464882
2023-05-09T20:44:11.887Z,16.327759197324415
2023-05-09T20:50:31.354Z,17.304347826086957
2023-05-09T20:56:51.878Z,16.555183946488295
2023-05-09T21:03:12.358Z,17.08695652173913
2023-05-09T21:09:32.258Z,15.899665551839465
2023-05-09T21:15:52.657Z,16.277591973244146
2023-05-09T21:22:47.231Z,16.11371237458194
2023-05-09T21:29:08.571Z,18.11371237458194
2023-05-09T21:35:28.995Z,18.207357859531772
2023-05-09T21:41:51.150Z,18.53846153846154
2023-05-09T21:48:12.813Z,18.34113712374582
2023-05-09T21:54:34.026Z,18.354515050167223
2023-05-09T22:00:57.438Z,19.040133779264213
2023-05-09T22:07:19.163Z,17.615384615384617
2023-05-09T22:13:41.220Z,15.725752508361204
2023-05-09T22:25:40.720Z,15.862876254180602
2023-05-09T22:32:01.656Z,14.775919732441471
2023-05-09T22:38:22.088Z,13.919732441471572
2023-05-09T22:51:23.205Z,14.137123745819398
2023-05-09T23:02:47.935Z,12.331103678929766
2023-05-09T23:09:09.680Z,12.806020066889632
2023-05-09T23:16:56.022Z,10.250836120401338
2023-05-09T23:23:17.885Z,11.481605351170568
2023-05-09T23:33:43.603Z,10.448160535117056
2023-05-09T23:40:07.825Z,10.006688963210703
2023-05-09T23:53:53.388Z,8.096989966555183
